createdAt,value
2019-02-05T00:02:21.904Z,99.90
2019-02-05T00:04:53.783Z,99.90
2019-02-05T00:07:25.737Z,99.90
2019-02-05T00:09:57.688Z,99.90
2019-02-05T00:12:29.551Z,99.90
2019-02-05T00:15:01.425Z,99.90
2019-02-05T00:17:33.300Z,99.90
2019-02-05T00:20:06.901Z,99.90
2019-02-05T00:22:38.786Z,99.90
2019-02-05T00:25:10.758Z,99.90
2019-02-05T00:27:42.892Z,99.90
2019-02-05T00:30:15.730Z,99.90
2019-02-05T00:32:48.035Z,99.90
2019-02-05T00:35:20.091Z,99.90
2019-02-05T00:37:52.011Z,99.90
2019-02-05T00:40:23.932Z,99.90
2019-02-05T00:42:55.885Z,99.90
2019-02-05T00:45:28.223Z,99.90
2019-02-05T00:48:00.158Z,99.90
2019-02-05T00:50:32.237Z,99.90
2019-02-05T00:53:04.890Z,99.90
2019-02-05T00:55:36.931Z,99.90
2019-02-05T00:58:08.795Z,99.90
2019-02-05T01:00:40.974Z,99.90
2019-02-05T01:03:13.125Z,99.90
2019-02-05T01:05:45.027Z,99.90
2019-02-05T01:08:19.098Z,99.90
2019-02-05T01:10:51.104Z,99.90
2019-02-05T01:13:23.127Z,99.90
2019-02-05T01:15:55.128Z,99.90
2019-02-05T01:18:27.387Z,99.90
2019-02-05T01:20:59.669Z,99.90
2019-02-05T01:23:31.870Z,99.90
2019-02-05T01:26:04.031Z,99.90
2019-02-05T01:28:37.158Z,99.90
2019-02-05T01:31:09.082Z,99.90
2019-02-05T01:33:42.508Z,99.90
2019-02-05T01:36:14.511Z,99.90
2019-02-05T01:38:46.463Z,99.90
2019-02-05T01:41:18.368Z,99.90
2019-02-05T01:43:50.276Z,99.90
2019-02-05T01:46:22.201Z,99.90
2019-02-05T01:48:54.095Z,99.90
2019-02-05T01:51:25.982Z,99.90
2019-02-05T01:53:58.020Z,99.90
2019-02-05T01:56:40.181Z,99.90
2019-02-05T01:59:03.550Z,99.90
2019-02-05T02:01:35.894Z,99.90
2019-02-05T02:04:08.070Z,99.90
2019-02-05T02:06:39.948Z,99.90
2019-02-05T02:09:12.691Z,99.90
2019-02-05T02:11:44.742Z,99.90
2019-02-05T02:14:17.408Z,99.90
2019-02-05T02:16:49.303Z,99.90
2019-02-05T02:19:22.018Z,99.90
2019-02-05T02:21:54.129Z,99.90
2019-02-05T02:24:26.347Z,99.90
2019-02-05T02:26:58.386Z,99.90
2019-02-05T02:29:30.425Z,99.90
2019-02-05T02:32:02.407Z,99.90
2019-02-05T02:34:34.357Z,99.90
2019-02-05T02:37:06.268Z,99.90
2019-02-05T02:39:38.258Z,99.90
2019-02-05T02:42:10.393Z,99.90
2019-02-05T02:44:42.297Z,99.90
2019-02-05T02:47:14.187Z,99.90
2019-02-05T02:49:46.155Z,99.90
2019-02-05T02:52:18.116Z,99.90
2019-02-05T02:54:51.690Z,99.90
2019-02-05T02:57:25.677Z,99.90
2019-02-05T02:59:57.865Z,99.90
2019-02-05T03:02:29.880Z,99.90
2019-02-05T03:05:01.887Z,99.90
2019-02-05T03:07:33.960Z,99.90
2019-02-05T03:10:09.405Z,99.90
2019-02-05T03:12:41.411Z,99.90
2019-02-05T03:15:13.777Z,99.90
2019-02-05T03:17:45.759Z,99.90
2019-02-05T03:20:18.458Z,99.90
2019-02-05T03:22:50.554Z,99.90
2019-02-05T03:25:24.947Z,99.90
2019-02-05T03:27:57.044Z,99.90
2019-02-05T03:30:29.022Z,99.90
2019-02-05T03:33:00.979Z,99.90
2019-02-05T03:35:32.879Z,99.90
2019-02-05T03:38:05.128Z,99.90
2019-02-05T03:41:11.997Z,99.90
2019-02-05T03:43:44.145Z,99.90
2019-02-05T03:46:18.822Z,99.90
2019-02-05T03:48:52.446Z,99.90
2019-02-05T03:52:11.064Z,99.90
2019-02-05T03:55:30.146Z,99.90
2019-02-05T03:59:33.969Z,99.90
2019-02-05T04:02:48.351Z,99.90
2019-02-05T04:06:21.081Z,99.90
2019-02-05T04:09:47.085Z,99.90
2019-02-05T04:13:22.946Z,99.90
2019-02-05T04:16:29.363Z,99.90
2019-02-05T04:19:54.815Z,99.90
2019-02-05T04:23:11.498Z,99.90
2019-02-05T04:26:45.500Z,99.90
2019-02-05T04:30:09.602Z,99.90
2019-02-05T04:33:10.768Z,99.90
2019-02-05T04:36:50.167Z,99.90
2019-02-05T04:40:02.104Z,99.90
2019-02-05T04:43:09.590Z,99.90
2019-02-05T04:46:16.699Z,99.90
2019-02-05T04:49:33.618Z,99.90
2019-02-05T04:52:52.700Z,99.90
2019-02-05T04:55:56.830Z,99.90
2019-02-05T04:59:33.619Z,99.90
2019-02-05T05:03:11.991Z,99.90
2019-02-05T05:06:33.217Z,99.90
2019-02-05T05:09:50.490Z,99.90
2019-02-05T05:12:22.705Z,99.90
2019-02-05T05:14:55.169Z,99.90
2019-02-05T05:17:27.111Z,99.90
2019-02-05T05:19:59.411Z,99.90
2019-02-05T05:22:31.551Z,99.90
2019-02-05T05:25:03.645Z,99.90
2019-02-05T05:27:35.776Z,99.90
2019-02-05T05:30:12.940Z,99.90
2019-02-05T05:32:45.087Z,99.90
2019-02-05T05:35:17.432Z,99.90
2019-02-05T05:37:49.979Z,99.90
2019-02-05T05:40:22.190Z,99.90
2019-02-05T05:42:54.294Z,99.90
2019-02-05T05:45:26.311Z,99.90
2019-02-05T05:47:58.242Z,99.90
2019-02-05T05:50:30.264Z,99.90
2019-02-05T05:53:02.620Z,99.90
2019-02-05T05:55:34.578Z,99.90
2019-02-05T05:58:06.780Z,99.90
2019-02-05T06:00:38.799Z,99.90
2019-02-05T06:03:10.861Z,99.90
2019-02-05T06:05:43.002Z,99.90
2019-02-05T06:08:15.065Z,99.90
2019-02-05T06:10:47.038Z,99.90
2019-02-05T06:13:19.023Z,99.90
2019-02-05T06:15:51.161Z,99.90
2019-02-05T06:18:23.259Z,99.90
2019-02-05T06:20:55.453Z,99.90
2019-02-05T06:23:27.411Z,99.90
2019-02-05T06:25:59.779Z,99.90
2019-02-05T06:28:34.742Z,99.90
2019-02-05T06:31:05.961Z,99.90
2019-02-05T06:33:38.009Z,99.90
2019-02-05T06:36:10.054Z,99.90
2019-02-05T06:38:44.645Z,99.90
2019-02-05T06:41:18.580Z,99.90
2019-02-05T06:43:50.951Z,99.90
2019-02-05T06:46:22.942Z,99.90
2019-02-05T06:48:56.851Z,99.90
2019-02-05T06:51:29.036Z,99.90
2019-02-05T06:54:01.685Z,99.90
2019-02-05T06:56:33.743Z,99.90
2019-02-05T06:59:05.787Z,99.90
2019-02-05T07:01:37.743Z,99.90
2019-02-05T07:04:09.975Z,99.90
2019-02-05T07:06:41.860Z,99.90
2019-02-05T07:09:14.775Z,99.90
2019-02-05T07:11:47.500Z,99.90
2019-02-05T07:14:19.498Z,99.90
2019-02-05T07:16:51.486Z,99.90
2019-02-05T07:19:23.463Z,99.90
2019-02-05T07:21:55.580Z,99.90
2019-02-05T07:24:27.910Z,99.90
2019-02-05T07:27:00.092Z,99.90
2019-02-05T07:29:32.430Z,99.90
2019-02-05T07:32:05.116Z,99.90
2019-02-05T07:34:37.183Z,96.70
2019-02-05T07:37:09.155Z,94.30
2019-02-05T07:39:41.111Z,93.70
2019-02-05T07:42:13.026Z,92.70
2019-02-05T07:44:44.985Z,92.10
2019-02-05T07:47:16.984Z,89.70
2019-02-05T07:49:48.914Z,85.90
2019-02-05T07:52:20.898Z,82.30
2019-02-05T07:54:53.449Z,84.00
2019-02-05T07:57:25.590Z,80.00
2019-02-05T07:59:57.591Z,79.40
2019-02-05T08:02:29.948Z,81.60
2019-02-05T08:05:01.939Z,86.20
2019-02-05T08:07:34.001Z,83.80
2019-02-05T08:10:06.848Z,84.10
2019-02-05T08:12:39.080Z,83.40
2019-02-05T08:15:14.004Z,85.50
2019-02-05T08:17:46.122Z,85.10
2019-02-05T08:20:19.892Z,80.90
2019-02-05T08:22:52.080Z,77.60
2019-02-05T08:25:24.262Z,74.80
2019-02-05T08:27:56.474Z,67.10
2019-02-05T08:30:35.400Z,60.70
2019-02-05T08:33:07.725Z,55.70
2019-02-05T08:35:39.902Z,56.10
2019-02-05T08:38:12.278Z,56.30
2019-02-05T08:40:44.589Z,57.30
2019-02-05T08:43:16.612Z,56.20
2019-02-05T08:45:56.354Z,56.40
2019-02-05T08:48:22.452Z,54.20
2019-02-05T08:50:54.895Z,54.00
2019-02-05T08:53:26.955Z,53.10
2019-02-05T08:55:59.285Z,53.70
2019-02-05T08:58:31.520Z,52.80
2019-02-05T09:01:03.517Z,51.80
2019-02-05T09:03:35.689Z,50.80
2019-02-05T09:06:07.720Z,51.90
2019-02-05T09:08:40.147Z,50.90
2019-02-05T09:11:12.242Z,50.30
2019-02-05T09:13:44.360Z,48.60
2019-02-05T09:16:17.984Z,48.10
2019-02-05T09:18:50.064Z,49.10
2019-02-05T09:21:22.793Z,48.20
2019-02-05T09:23:54.781Z,47.40
2019-02-05T09:26:26.908Z,45.10
2019-02-05T09:28:59.009Z,43.90
2019-02-05T09:31:31.060Z,42.90
2019-02-05T09:34:03.543Z,40.50
2019-02-05T09:36:35.671Z,38.80
2019-02-05T09:39:09.796Z,39.20
2019-02-05T09:41:41.983Z,39.60
2019-02-05T09:44:14.189Z,39.50
2019-02-05T09:46:46.900Z,39.20
2019-02-05T09:49:18.916Z,41.40
2019-02-05T09:51:50.926Z,41.60
2019-02-05T09:54:23.109Z,41.10
2019-02-05T09:56:55.089Z,43.40
2019-02-05T09:59:27.167Z,42.40
2019-02-05T10:01:59.196Z,41.50
2019-02-05T10:04:31.230Z,43.10
2019-02-05T10:07:03.319Z,42.60
2019-02-05T10:09:35.434Z,44.80
2019-02-05T10:12:08.117Z,45.50
2019-02-05T10:14:40.341Z,45.20
2019-02-05T10:17:12.481Z,46.40
2019-02-05T10:19:44.676Z,46.50
2019-02-05T10:22:16.856Z,46.50
2019-02-05T10:24:49.926Z,45.00
2019-02-05T10:27:22.269Z,43.40
2019-02-05T10:29:59.276Z,43.00
2019-02-05T10:32:27.996Z,42.10
2019-02-05T10:34:59.970Z,41.50
2019-02-05T10:37:32.123Z,42.10
2019-02-05T10:40:05.335Z,42.20
2019-02-05T10:42:37.599Z,41.60
2019-02-05T10:45:11.412Z,41.40
2019-02-05T10:47:43.559Z,42.10
2019-02-05T10:50:17.556Z,42.60
2019-02-05T10:52:50.055Z,42.30
2019-02-05T10:55:22.455Z,42.10
2019-02-05T10:57:54.795Z,42.70
2019-02-05T11:00:29.798Z,43.20
2019-02-05T11:03:04.147Z,42.50
2019-02-05T11:05:36.280Z,43.00
2019-02-05T11:08:09.025Z,42.70
2019-02-05T11:10:41.205Z,43.40
2019-02-05T11:13:13.424Z,42.70
2019-02-05T11:15:45.777Z,42.70
2019-02-05T11:18:17.767Z,42.80
2019-02-05T11:20:49.913Z,42.70
2019-02-05T11:23:22.009Z,43.00
2019-02-05T11:25:54.375Z,43.30
2019-02-05T11:28:26.512Z,43.30
2019-02-05T11:30:58.951Z,43.70
2019-02-05T11:33:31.274Z,43.50
2019-02-05T11:36:03.666Z,43.80
2019-02-05T11:38:35.870Z,42.70
2019-02-05T11:41:07.987Z,43.80
2019-02-05T11:43:40.880Z,43.70
2019-02-05T11:46:13.142Z,44.50
2019-02-05T11:48:45.405Z,44.00
2019-02-05T11:51:17.484Z,44.10
2019-02-05T11:53:49.562Z,45.70
2019-02-05T11:56:21.724Z,44.90
2019-02-05T11:58:54.057Z,45.50
2019-02-05T12:01:39.003Z,44.40
2019-02-05T12:04:06.516Z,45.10
2019-02-05T12:06:38.687Z,45.30
2019-02-05T12:09:24.441Z,44.10
2019-02-05T12:11:56.540Z,45.20
2019-02-05T12:14:28.635Z,45.80
2019-02-05T12:17:01.991Z,45.90
2019-02-05T12:19:34.509Z,46.40
2019-02-05T12:22:07.224Z,46.20
2019-02-05T12:24:39.343Z,45.50
2019-02-05T12:27:11.454Z,45.50
2019-02-05T12:29:43.485Z,45.90
2019-02-05T12:32:15.444Z,45.30
2019-02-05T12:34:47.485Z,45.80
2019-02-05T12:37:19.512Z,44.90
2019-02-05T12:39:51.605Z,45.00
2019-02-05T12:42:23.598Z,45.80
2019-02-05T12:44:55.642Z,46.00
2019-02-05T12:47:27.739Z,47.00
2019-02-05T12:50:00.074Z,46.80
2019-02-05T12:52:32.616Z,47.60
2019-02-05T12:55:13.539Z,48.30
2019-02-05T12:57:39.170Z,48.70
2019-02-05T13:00:33.386Z,49.20
2019-02-05T13:03:06.108Z,49.50
2019-02-05T13:05:39.192Z,49.80
2019-02-05T13:08:11.536Z,50.80
2019-02-05T13:10:47.070Z,50.70
2019-02-05T13:13:19.786Z,50.60
2019-02-05T13:15:51.959Z,52.00
2019-02-05T13:18:24.764Z,51.40
2019-02-05T13:20:56.824Z,53.10
2019-02-05T13:23:28.978Z,52.30
2019-02-05T13:26:01.046Z,53.50
2019-02-05T13:28:33.332Z,54.00
2019-02-05T13:31:08.282Z,54.10
2019-02-05T13:33:40.187Z,52.70
2019-02-05T13:36:13.067Z,53.30
2019-02-05T13:38:45.093Z,53.70
2019-02-05T13:41:17.165Z,54.50
2019-02-05T13:43:49.121Z,54.90
2019-02-05T13:46:21.066Z,55.40
2019-02-05T13:48:53.287Z,55.80
2019-02-05T13:51:25.278Z,56.30
2019-02-05T13:53:57.789Z,57.00
2019-02-05T13:56:29.911Z,58.50
2019-02-05T13:59:01.997Z,59.30
2019-02-05T14:01:34.131Z,61.30
2019-02-05T14:04:06.985Z,63.30
2019-02-05T14:06:39.470Z,64.70
2019-02-05T14:09:15.014Z,65.60
2019-02-05T14:11:47.147Z,65.60
2019-02-05T14:14:19.192Z,66.60
2019-02-05T14:16:51.424Z,67.10
2019-02-05T14:19:23.938Z,69.40
2019-02-05T14:21:56.532Z,69.60
2019-02-05T14:24:28.546Z,69.30
2019-02-05T14:27:00.543Z,70.40
2019-02-05T14:29:32.695Z,71.30
2019-02-05T14:32:04.970Z,72.30
2019-02-05T14:34:37.129Z,73.40
2019-02-05T14:37:09.419Z,74.30
2019-02-05T14:39:41.546Z,74.50
2019-02-05T14:42:13.612Z,75.10
2019-02-05T14:44:45.682Z,75.70
2019-02-05T14:47:17.678Z,75.00
2019-02-05T14:49:49.701Z,74.60
2019-02-05T14:52:21.668Z,74.90
2019-02-05T14:54:55.524Z,75.50
2019-02-05T14:57:27.709Z,76.00
2019-02-05T15:00:00.232Z,76.50
2019-02-05T15:02:32.261Z,76.90
2019-02-05T15:05:04.897Z,77.40
2019-02-05T15:07:37.314Z,77.30
2019-02-05T15:10:11.681Z,77.30
2019-02-05T15:12:43.851Z,78.90
2019-02-05T15:15:18.649Z,80.20
2019-02-05T15:17:51.910Z,81.60
2019-02-05T15:20:40.101Z,82.00
2019-02-05T15:23:13.185Z,81.10
2019-02-05T15:25:45.580Z,81.80
2019-02-05T15:28:17.796Z,82.80
2019-02-05T15:30:49.888Z,84.10
2019-02-05T15:33:42.176Z,84.10
2019-02-05T15:36:33.780Z,84.60
2019-02-05T15:39:14.362Z,85.80
2019-02-05T15:41:46.527Z,86.40
2019-02-05T15:44:18.868Z,88.00
2019-02-05T15:46:51.056Z,88.80
2019-02-05T15:49:23.131Z,89.20
2019-02-05T15:51:55.303Z,89.50
2019-02-05T15:54:27.552Z,89.60
2019-02-05T15:56:59.791Z,89.50
2019-02-05T15:59:43.590Z,89.70
2019-02-05T16:02:16.016Z,89.70
2019-02-05T16:04:48.087Z,89.90
2019-02-05T16:07:20.163Z,90.50
2019-02-05T16:09:52.308Z,91.10
2019-02-05T16:12:24.437Z,91.50
2019-02-05T16:14:56.646Z,92.70
2019-02-05T16:17:28.748Z,92.10
2019-02-05T16:20:00.781Z,93.00
2019-02-05T16:22:32.954Z,93.30
2019-02-05T16:25:06.808Z,94.00
2019-02-05T16:27:39.076Z,94.00
2019-02-05T16:30:16.713Z,94.70
2019-02-05T16:32:49.060Z,94.60
2019-02-05T16:35:21.381Z,94.20
2019-02-05T16:37:55.126Z,94.20
2019-02-05T16:40:28.938Z,94.40
2019-02-05T16:43:01.341Z,94.80
2019-02-05T16:45:33.728Z,95.20
2019-02-05T16:48:06.443Z,95.60
2019-02-05T16:50:42.359Z,96.00
2019-02-05T16:53:15.285Z,95.70
2019-02-05T16:55:47.314Z,95.90
2019-02-05T16:58:19.783Z,96.30
2019-02-05T17:00:51.985Z,96.30
2019-02-05T17:03:24.215Z,96.30
2019-02-05T17:05:56.988Z,96.50
2019-02-05T17:08:29.940Z,96.70
2019-02-05T17:11:02.072Z,97.10
2019-02-05T17:13:34.337Z,97.50
2019-02-05T17:16:06.945Z,98.50
2019-02-05T17:18:39.001Z,98.60
2019-02-05T17:21:11.273Z,98.40
2019-02-05T17:23:43.431Z,98.10
2019-02-05T17:26:15.531Z,98.00
2019-02-05T17:28:47.696Z,98.40
2019-02-05T17:31:19.798Z,98.50
2019-02-05T17:33:51.980Z,98.60
2019-02-05T17:36:24.060Z,98.70
2019-02-05T17:38:56.329Z,98.70
2019-02-05T17:41:28.921Z,99.40
2019-02-05T17:44:01.013Z,99.60
2019-02-05T17:46:33.240Z,99.80
2019-02-05T17:49:05.421Z,99.90
2019-02-05T17:51:37.526Z,99.90
2019-02-05T17:54:09.769Z,99.90
2019-02-05T17:56:41.970Z,99.90
2019-02-05T17:59:14.137Z,99.90
2019-02-05T18:01:46.296Z,99.90
2019-02-05T18:04:18.455Z,99.90
2019-02-05T18:06:51.108Z,99.90
2019-02-05T18:09:23.467Z,99.90
2019-02-05T18:11:55.645Z,99.90
2019-02-05T18:14:28.017Z,99.90
2019-02-05T18:17:02.712Z,99.90
2019-02-05T18:19:34.887Z,99.90
2019-02-05T18:22:08.223Z,99.90
2019-02-05T18:24:40.399Z,99.90
2019-02-05T18:27:12.617Z,99.90
2019-02-05T18:29:44.953Z,99.90
2019-02-05T18:32:17.154Z,99.90
2019-02-05T18:34:49.810Z,99.90
2019-02-05T18:37:22.367Z,99.90
2019-02-05T18:39:54.571Z,99.90
2019-02-05T18:42:27.082Z,99.90
2019-02-05T18:44:59.274Z,99.90
2019-02-05T18:47:32.473Z,99.90
2019-02-05T18:50:06.552Z,99.90
2019-02-05T18:52:51.059Z,99.90
2019-02-05T18:55:25.865Z,99.90
2019-02-05T18:58:08.483Z,99.90
2019-02-05T19:00:35.063Z,99.90
2019-02-05T19:03:15.417Z,99.90
2019-02-05T19:05:43.313Z,99.90
2019-02-05T19:08:16.702Z,99.90
2019-02-05T19:10:49.512Z,99.90
2019-02-05T19:13:21.950Z,99.90
2019-02-05T19:15:54.214Z,99.90
2019-02-05T19:18:26.497Z,99.90
2019-02-05T19:20:58.661Z,99.90
2019-02-05T19:23:31.084Z,99.90
2019-02-05T19:26:12.469Z,99.90
2019-02-05T19:28:46.145Z,99.90
2019-02-05T19:31:39.320Z,99.90
2019-02-05T19:34:11.851Z,99.90
2019-02-05T19:36:44.223Z,99.90
2019-02-05T19:39:16.530Z,99.90
2019-02-05T19:41:49.447Z,99.90
2019-02-05T19:44:21.869Z,99.90
2019-02-05T19:47:00.223Z,99.90
2019-02-05T19:49:40.528Z,99.90
2019-02-05T19:52:12.993Z,99.90
2019-02-05T19:54:45.200Z,99.90
2019-02-05T19:57:17.450Z,99.90
2019-02-05T19:59:49.993Z,99.90
2019-02-05T20:02:22.633Z,99.90
2019-02-05T20:04:55.134Z,99.90
2019-02-05T20:07:27.663Z,99.90
2019-02-05T20:09:59.874Z,99.90
2019-02-05T20:12:32.566Z,99.90
2019-02-05T20:15:07.282Z,99.90
2019-02-05T20:17:39.337Z,99.90
2019-02-05T20:20:14.335Z,99.90
2019-02-05T20:22:46.547Z,99.90
2019-02-05T20:25:19.213Z,99.90
2019-02-05T20:27:52.939Z,99.90
2019-02-05T20:30:25.338Z,99.90
2019-02-05T20:32:57.660Z,99.90
2019-02-05T20:35:29.989Z,99.90
2019-02-05T20:38:02.325Z,99.90
2019-02-05T20:40:34.489Z,99.90
2019-02-05T20:43:07.091Z,99.90
2019-02-05T20:45:39.282Z,99.90
2019-02-05T20:48:11.852Z,99.90
2019-02-05T20:50:44.027Z,99.90
2019-02-05T20:53:16.094Z,99.90
2019-02-05T20:55:48.368Z,99.90
2019-02-05T20:58:20.726Z,99.90
2019-02-05T21:00:52.997Z,99.90
2019-02-05T21:03:25.654Z,99.90
2019-02-05T21:05:57.968Z,99.90
2019-02-05T21:08:30.124Z,99.90
2019-02-05T21:11:02.356Z,99.90
2019-02-05T21:13:36.016Z,99.90
2019-02-05T21:16:09.063Z,99.90
2019-02-05T21:18:41.424Z,99.90
2019-02-05T21:21:13.557Z,99.90
2019-02-05T21:23:45.781Z,99.90
2019-02-05T21:26:18.295Z,99.90
2019-02-05T21:28:50.679Z,99.90
2019-02-05T21:31:23.119Z,99.90
2019-02-05T21:33:55.285Z,99.90
2019-02-05T21:36:27.654Z,99.90
2019-02-05T21:38:59.767Z,99.90
2019-02-05T21:41:32.384Z,99.90
2019-02-05T21:44:05.162Z,99.90
2019-02-05T21:46:37.669Z,99.90
2019-02-05T21:49:09.839Z,99.90
2019-02-05T21:51:43.310Z,99.90
2019-02-05T21:54:16.086Z,99.90
2019-02-05T21:56:48.816Z,99.90
2019-02-05T21:59:21.047Z,99.90
2019-02-05T22:01:53.234Z,99.90
2019-02-05T22:04:27.329Z,99.90
2019-02-05T22:06:59.346Z,99.90
2019-02-05T22:09:31.454Z,99.90
2019-02-05T22:12:03.736Z,99.90
2019-02-05T22:14:36.337Z,99.90
2019-02-05T22:17:08.800Z,99.90
2019-02-05T22:19:42.449Z,99.90
2019-02-05T22:22:14.794Z,99.90
2019-02-05T22:24:47.013Z,99.90
2019-02-05T22:27:19.490Z,99.90
2019-02-05T22:29:51.766Z,99.90
2019-02-05T22:32:24.337Z,99.90
2019-02-05T22:34:56.471Z,99.90
2019-02-05T22:37:28.546Z,99.90
2019-02-05T22:40:00.705Z,99.90
2019-02-05T22:42:32.752Z,99.90
2019-02-05T22:45:06.205Z,99.90
2019-02-05T22:47:38.236Z,99.90
2019-02-05T22:50:15.457Z,99.90
2019-02-05T22:52:47.867Z,99.90
2019-02-05T22:55:20.054Z,99.90
2019-02-05T22:57:52.144Z,99.90
2019-02-05T23:01:34.834Z,99.90
2019-02-05T23:04:50.406Z,99.90
2019-02-05T23:07:22.264Z,99.90
2019-02-05T23:10:41.435Z,99.90
2019-02-05T23:13:17.399Z,99.90
2019-02-05T23:15:51.824Z,99.90
2019-02-05T23:18:24.701Z,99.90
2019-02-05T23:20:56.969Z,99.90
2019-02-05T23:23:29.081Z,99.90
2019-02-05T23:26:01.229Z,99.90
2019-02-05T23:28:33.399Z,99.90
2019-02-05T23:31:05.903Z,99.90
2019-02-05T23:33:38.030Z,99.90
2019-02-05T23:36:10.802Z,99.90
2019-02-05T23:38:43.778Z,99.90
2019-02-05T23:41:16.478Z,99.90
2019-02-05T23:43:48.584Z,99.90
2019-02-05T23:46:20.940Z,99.90
2019-02-05T23:48:52.902Z,99.90
2019-02-05T23:51:25.178Z,99.90
2019-02-05T23:53:57.564Z,99.90
2019-02-05T23:56:29.716Z,99.90
2019-02-05T23:59:01.736Z,99.90
